Time;durP1;ratioP1;P1;durP2;ratioP2;P2;SDS_P1;SDS_P2;PMS_P1;PMS_P2;Temp;Humidity;BMP_temperature;BMP_pressure;BME280_temperature;BME280_humidity;BME280_pressure;Samples;Min_cycle;Max_cycle;Signal;HPM_P1;HPM_P2
2021/05/09 00:02:14;;;;;;;4.63;3.23;;;12.10;79.20;;;;;;5110915;28;20183;-75
2021/05/09 00:04:40;;;;;;;5.03;3.57;;;12.20;79.60;;;;;;5111093;28;20186;-75
2021/05/09 00:07:06;;;;;;;6.77;3.27;;;12.20;79.20;;;;;;5101723;28;20199;-74
2021/05/09 00:09:32;;;;;;;4.60;3.13;;;12.10;79.30;;;;;;5104422;28;20190;-73
2021/05/09 00:11:58;;;;;;;5.20;3.13;;;12.10;79.50;;;;;;5103060;28;20420;-74
2021/05/09 00:14:24;;;;;;;4.83;3.23;;;12.10;79.20;;;;;;5112312;28;20440;-75
2021/05/09 00:16:50;;;;;;;5.80;3.40;;;12.20;79.00;;;;;;5105380;28;20179;-73
2021/05/09 00:19:16;;;;;;;4.27;2.77;;;12.20;78.90;;;;;;5094810;28;20468;-73
2021/05/09 00:21:41;;;;;;;4.00;3.00;;;12.20;79.00;;;;;;5114362;28;20190;-74
2021/05/09 00:24:07;;;;;;;4.00;2.90;;;12.10;79.20;;;;;;5097685;28;20251;-73
2021/05/09 00:26:34;;;;;;;4.23;3.10;;;12.10;79.60;;;;;;5091368;28;20252;-72
2021/05/09 00:29:00;;;;;;;3.93;2.90;;;12.10;80.30;;;;;;5109630;28;20444;-75
2021/05/09 00:31:26;;;;;;;3.57;2.77;;;12.10;80.60;;;;;;5116124;27;20469;-74
2021/05/09 00:33:51;;;;;;;5.83;2.80;;;12.10;80.80;;;;;;5112484;28;20214;-72
2021/05/09 00:36:18;;;;;;;5.20;3.23;;;12.10;80.80;;;;;;5113908;28;20190;-74
2021/05/09 00:38:43;;;;;;;5.03;2.93;;;12.10;80.60;;;;;;5105344;28;20289;-74
2021/05/09 00:41:09;;;;;;;5.03;2.83;;;12.10;80.90;;;;;;5117908;28;20464;-73
2021/05/09 00:43:35;;;;;;;3.73;2.67;;;12.10;81.10;;;;;;5111323;28;20271;-73
2021/05/09 00:46:00;;;;;;;4.33;2.90;;;12.10;81.10;;;;;;5100510;28;20178;-73
2021/05/09 00:48:26;;;;;;;3.90;2.80;;;12.10;81.10;;;;;;5095394;28;20666;-71
2021/05/09 00:50:52;;;;;;;5.00;2.57;;;12.10;80.80;;;;;;5108266;28;20186;-74
2021/05/09 00:53:22;;;;;;;3.80;2.60;;;12.10;80.90;;;;;;5093348;28;20242;-73
2021/05/09 00:55:50;;;;;;;4.20;2.50;;;12.10;81.20;;;;;;5109250;28;20262;-75
2021/05/09 00:58:17;;;;;;;4.80;2.70;;;12.10;81.80;;;;;;5093471;28;20417;-75
2021/05/09 01:00:45;;;;;;;4.70;2.70;;;12.20;81.80;;;;;;5100810;28;20526;-73
2021/05/09 01:03:12;;;;;;;6.03;2.70;;;12.10;81.90;;;;;;5111595;28;20916;-74
2021/05/09 01:05:38;;;;;;;4.20;2.70;;;12.10;81.90;;;;;;5102090;28;21151;-75
2021/05/09 01:08:04;;;;;;;5.13;2.60;;;12.10;82.20;;;;;;5112993;28;20465;-76
2021/05/09 01:10:32;;;;;;;4.50;2.37;;;12.00;82.40;;;;;;5098958;28;20500;-73
2021/05/09 01:12:58;;;;;;;4.10;2.83;;;12.00;83.00;;;;;;5093709;28;20452;-72
2021/05/09 01:15:24;;;;;;;4.20;2.90;;;12.00;83.00;;;;;;5104069;28;21003;-72
2021/05/09 01:17:50;;;;;;;8.03;3.10;;;12.00;83.00;;;;;;5110543;28;20468;-72
2021/05/09 01:20:16;;;;;;;4.50;2.60;;;12.00;83.30;;;;;;5108813;28;20858;-75
2021/05/09 01:22:42;;;;;;;3.37;2.80;;;11.90;83.30;;;;;;5109059;28;20463;-73
2021/05/09 01:25:09;;;;;;;3.73;2.77;;;11.90;83.30;;;;;;5110709;28;20236;-73
2021/05/09 01:27:35;;;;;;;3.87;2.27;;;11.90;83.70;;;;;;5096567;28;20432;-75
2021/05/09 01:30:01;;;;;;;4.10;2.30;;;11.90;84.00;;;;;;5109808;28;20469;-73
2021/05/09 01:32:27;;;;;;;3.10;2.20;;;11.80;84.10;;;;;;5109711;28;20434;-76
2021/05/09 01:34:53;;;;;;;4.20;2.30;;;11.80;84.40;;;;;;5109762;28;20930;-74
2021/05/09 01:37:18;;;;;;;3.30;2.20;;;11.80;84.60;;;;;;5104400;28;20187;-75
2021/05/09 01:39:44;;;;;;;4.27;2.13;;;11.80;84.60;;;;;;5101642;28;20242;-74
2021/05/09 01:42:10;;;;;;;3.37;2.20;;;11.80;84.40;;;;;;5110391;28;20186;-74
2021/05/09 01:44:35;;;;;;;6.93;2.40;;;11.80;84.60;;;;;;5110733;28;20183;-74
2021/05/09 01:47:01;;;;;;;3.17;2.10;;;11.80;84.40;;;;;;5089870;28;20187;-74
2021/05/09 01:49:27;;;;;;;4.60;2.30;;;11.80;84.40;;;;;;5090145;28;20183;-75
2021/05/09 01:51:54;;;;;;;4.30;2.30;;;11.80;84.30;;;;;;5090674;28;20191;-71
2021/05/09 01:54:21;;;;;;;5.60;2.47;;;11.80;84.60;;;;;;5103851;28;20205;-72
2021/05/09 01:56:46;;;;;;;3.00;2.50;;;11.80;84.60;;;;;;5109942;28;20424;-72
2021/05/09 01:59:12;;;;;;;3.33;2.47;;;11.80;84.30;;;;;;5109676;28;20474;-74
2021/05/09 02:01:38;;;;;;;2.93;2.13;;;11.80;84.40;;;;;;5103169;28;20187;-73
2021/05/09 02:04:04;;;;;;;4.27;2.80;;;11.80;84.60;;;;;;5100853;28;20228;-73
2021/05/09 02:06:30;;;;;;;5.93;3.30;;;11.70;84.40;;;;;;5095130;28;20210;-74
2021/05/09 02:08:55;;;;;;;7.20;2.60;;;11.70;84.60;;;;;;5089041;28;20566;-74
2021/05/09 02:11:21;;;;;;;4.90;3.23;;;11.70;84.70;;;;;;5089134;28;20202;-73
2021/05/09 02:13:47;;;;;;;4.30;2.80;;;11.60;85.20;;;;;;5089895;28;20674;-72
2021/05/09 02:16:13;;;;;;;6.23;2.97;;;11.70;85.20;;;;;;5096802;28;20214;-74
2021/05/09 02:18:38;;;;;;;4.60;3.00;;;11.70;85.20;;;;;;5089904;28;20768;-74
2021/05/09 02:21:04;;;;;;;4.00;2.20;;;11.70;85.00;;;;;;5098995;28;20247;-70
2021/05/09 02:23:30;;;;;;;5.80;2.87;;;11.70;85.00;;;;;;5130281;28;20206;-73
2021/05/09 02:25:55;;;;;;;2.60;2.40;;;11.70;85.30;;;;;;5117928;28;20456;-71
2021/05/09 02:28:21;;;;;;;5.83;3.10;;;11.70;84.90;;;;;;5106207;28;20715;-72
2021/05/09 02:30:47;;;;;;;4.00;2.40;;;11.70;84.90;;;;;;5093596;28;20178;-73
2021/05/09 02:33:13;;;;;;;4.20;2.50;;;11.60;85.00;;;;;;5097368;28;20264;-74
2021/05/09 02:35:39;;;;;;;3.17;2.43;;;11.60;85.20;;;;;;5115541;28;20183;-73
2021/05/09 02:38:05;;;;;;;4.07;2.83;;;11.60;85.20;;;;;;5120206;28;20492;-74
2021/05/09 02:40:31;;;;;;;4.73;2.50;;;11.60;85.30;;;;;;5122637;28;20677;-74
2021/05/09 02:42:56;;;;;;;4.13;2.60;;;11.60;85.20;;;;;;5111069;28;20454;-75
2021/05/09 02:45:22;;;;;;;3.80;2.70;;;11.60;85.00;;;;;;5104807;28;20714;-73
2021/05/09 02:47:48;;;;;;;5.03;2.40;;;11.60;84.70;;;;;;5105780;28;20235;-74
2021/05/09 02:50:14;;;;;;;4.43;2.53;;;11.60;84.70;;;;;;5105471;28;20214;-74
2021/05/09 02:52:40;;;;;;;8.57;3.20;;;11.60;84.60;;;;;;5105721;28;20206;-71
2021/05/09 02:55:07;;;;;;;5.27;2.80;;;11.70;84.40;;;;;;5113195;27;20456;-73
2021/05/09 02:57:33;;;;;;;3.87;2.80;;;11.70;84.30;;;;;;5113426;28;20416;-72
2021/05/09 03:00:01;;;;;;;10.87;3.00;;;11.70;84.30;;;;;;5111133;28;20478;-74
2021/05/09 03:02:27;;;;;;;3.60;2.63;;;11.80;84.10;;;;;;5112999;28;20178;-73
2021/05/09 03:04:52;;;;;;;5.00;3.00;;;11.80;84.10;;;;;;5113270;28;20462;-71
2021/05/09 03:07:18;;;;;;;6.40;3.20;;;11.80;84.00;;;;;;5113106;28;20174;-72
2021/05/09 03:09:44;;;;;;;6.27;3.10;;;11.80;84.00;;;;;;5112469;28;20208;-73
2021/05/09 03:12:09;;;;;;;7.73;3.40;;;11.80;84.00;;;;;;5112629;28;20565;-74
2021/05/09 03:14:35;;;;;;;5.03;3.70;;;11.80;83.70;;;;;;5113006;28;20268;-74
2021/05/09 03:17:01;;;;;;;6.90;3.07;;;11.90;83.30;;;;;;5112894;28;20650;-72
2021/05/09 03:19:27;;;;;;;5.93;3.00;;;11.90;82.80;;;;;;5112339;28;20205;-73
2021/05/09 03:21:52;;;;;;;4.23;2.73;;;11.90;82.80;;;;;;5112690;28;20942;-73
2021/05/09 03:24:18;;;;;;;3.63;2.60;;;12.00;82.70;;;;;;5112957;28;20222;-73
2021/05/09 03:26:44;;;;;;;3.90;3.07;;;12.00;82.50;;;;;;5112672;28;20183;-74
2021/05/09 03:29:10;;;;;;;4.47;3.30;;;12.00;82.40;;;;;;5112132;27;20198;-71
2021/05/09 03:31:36;;;;;;;5.13;3.10;;;12.00;82.80;;;;;;5112513;28;20427;-73
2021/05/09 03:34:02;;;;;;;7.27;3.97;;;11.90;83.00;;;;;;5093093;28;20259;-74
2021/05/09 03:36:27;;;;;;;8.17;4.57;;;12.00;83.10;;;;;;5092304;28;20925;-73
2021/05/09 03:38:53;;;;;;;7.40;4.30;;;12.00;83.30;;;;;;5090340;28;20461;-74
2021/05/09 03:41:21;;;;;;;7.40;4.53;;;12.00;83.10;;;;;;5103656;28;20182;-73
2021/05/09 03:43:46;;;;;;;6.30;3.60;;;11.90;83.00;;;;;;5112322;28;20574;-73
2021/05/09 03:46:12;;;;;;;5.23;2.80;;;11.90;83.60;;;;;;5112661;28;20531;-75
2021/05/09 03:48:38;;;;;;;5.20;2.97;;;11.90;83.60;;;;;;5113862;28;20642;-73
2021/05/09 03:51:04;;;;;;;5.60;2.37;;;11.80;83.70;;;;;;5114371;28;20186;-73
2021/05/09 03:53:30;;;;;;;4.30;2.80;;;11.90;83.60;;;;;;5114356;28;20631;-73
2021/05/09 03:55:57;;;;;;;5.13;2.40;;;11.80;83.60;;;;;;5112603;28;20499;-72
2021/05/09 03:58:22;;;;;;;5.33;2.87;;;11.80;83.70;;;;;;5105782;28;20489;-72
2021/05/09 04:00:48;;;;;;;5.77;3.30;;;11.80;84.00;;;;;;5120778;28;20460;-74
2021/05/09 04:03:29;;;;;;;5.23;2.90;;;11.70;84.30;;;;;;5114285;28;20199;-75
2021/05/09 04:05:55;;;;;;;14.90;3.00;;;11.70;84.40;;;;;;5098318;28;20185;-74
2021/05/09 04:08:22;;;;;;;4.10;2.97;;;11.70;84.70;;;;;;5111637;28;20796;-74
2021/05/09 04:10:49;;;;;;;4.77;2.57;;;11.70;85.00;;;;;;5098491;28;20512;-75
2021/05/09 04:13:15;;;;;;;3.20;2.70;;;11.70;85.00;;;;;;5100233;28;20456;-74
2021/05/09 04:15:41;;;;;;;5.70;3.27;;;11.70;85.30;;;;;;5114835;28;20431;-74
2021/05/09 04:18:09;;;;;;;3.27;2.70;;;11.70;85.20;;;;;;5123338;28;20186;-73
2021/05/09 04:20:34;;;;;;;3.67;2.70;;;11.70;85.30;;;;;;5125823;28;20459;-73
2021/05/09 04:23:11;;;;;;;7.00;3.40;;;11.70;85.60;;;;;;5117007;28;20988;-74
2021/05/09 04:25:38;;;;;;;3.63;2.97;;;11.60;85.70;;;;;;5122326;28;20204;-74
2021/05/09 04:28:05;;;;;;;3.83;2.67;;;11.70;85.90;;;;;;5120499;28;20413;-73
2021/05/09 04:30:32;;;;;;;4.00;2.97;;;11.70;85.90;;;;;;5120901;28;20416;-73
2021/05/09 04:33:02;;;;;;;6.40;3.47;;;11.70;86.00;;;;;;5122210;28;20452;-73
2021/05/09 04:35:29;;;;;;;4.57;3.23;;;11.80;85.70;;;;;;5112393;28;20939;-73
2021/05/09 04:37:54;;;;;;;6.27;3.37;;;11.80;85.70;;;;;;5110897;28;20503;-74
2021/05/09 04:40:20;;;;;;;6.10;3.40;;;11.90;85.70;;;;;;5110560;28;20559;-73
2021/05/09 04:42:46;;;;;;;4.93;3.40;;;11.90;85.30;;;;;;5112733;28;20501;-73
2021/05/09 04:45:12;;;;;;;5.17;3.20;;;12.00;85.30;;;;;;5111979;28;21172;-75
2021/05/09 04:47:38;;;;;;;7.80;3.90;;;12.00;85.20;;;;;;5117153;27;20188;-73
2021/05/09 04:50:06;;;;;;;5.90;3.80;;;12.10;84.70;;;;;;5119851;28;20423;-74
2021/05/09 04:52:32;;;;;;;6.60;3.67;;;12.10;84.60;;;;;;5116574;27;20443;-74
2021/05/09 04:54:57;;;;;;;5.70;3.40;;;12.10;84.70;;;;;;5113556;28;20636;-73
2021/05/09 04:57:23;;;;;;;6.43;3.80;;;12.20;84.90;;;;;;5125899;28;20216;-73
2021/05/09 04:59:49;;;;;;;7.33;4.00;;;12.20;84.90;;;;;;5124995;28;20259;-73
2021/05/09 05:02:15;;;;;;;9.17;4.57;;;12.10;84.60;;;;;;5120944;28;20247;-74
2021/05/09 05:04:40;;;;;;;11.20;3.80;;;12.10;84.70;;;;;;5111139;27;20179;-75
2021/05/09 05:07:06;;;;;;;6.30;4.13;;;12.10;84.90;;;;;;5111031;28;20634;-75
2021/05/09 05:09:32;;;;;;;6.80;4.20;;;12.20;85.00;;;;;;5109432;28;20183;-75
2021/05/09 05:11:57;;;;;;;5.87;3.73;;;12.20;85.00;;;;;;5110569;28;20224;-72
2021/05/09 05:14:23;;;;;;;5.43;3.50;;;12.20;85.00;;;;;;5109164;28;20217;-72
2021/05/09 05:16:49;;;;;;;7.70;4.13;;;12.30;85.00;;;;;;5110548;28;20178;-72
2021/05/09 05:19:15;;;;;;;6.07;3.60;;;12.20;84.90;;;;;;5109599;28;20936;-75
2021/05/09 05:21:40;;;;;;;5.23;3.43;;;12.20;85.20;;;;;;5110283;28;20619;-73
2021/05/09 05:24:08;;;;;;;7.57;4.13;;;12.20;85.30;;;;;;5107611;28;20218;-75
2021/05/09 05:26:34;;;;;;;5.13;3.70;;;12.30;85.30;;;;;;5088754;28;20206;-74
2021/05/09 05:29:00;;;;;;;7.83;3.27;;;12.30;85.20;;;;;;5092939;28;20951;-72
2021/05/09 05:31:26;;;;;;;7.40;3.10;;;12.30;84.90;;;;;;5110337;28;20424;-74
2021/05/09 05:33:51;;;;;;;6.30;4.63;;;12.40;84.40;;;;;;5108906;28;20225;-75
2021/05/09 05:36:17;;;;;;;6.53;3.87;;;12.30;84.70;;;;;;5110659;28;20793;-74
2021/05/09 05:38:44;;;;;;;6.53;4.00;;;12.30;84.70;;;;;;5110095;28;20194;-76
2021/05/09 05:41:10;;;;;;;8.27;4.67;;;12.40;84.70;;;;;;5109610;27;20187;-73
2021/05/09 05:43:35;;;;;;;7.60;3.87;;;12.40;84.70;;;;;;5108507;28;20448;-75
2021/05/09 05:46:03;;;;;;;5.03;3.30;;;12.50;84.30;;;;;;5110095;28;20186;-75
2021/05/09 05:48:29;;;;;;;6.73;3.50;;;12.60;84.30;;;;;;5096214;28;20193;-74
2021/05/09 05:50:56;;;;;;;8.67;4.00;;;12.70;84.00;;;;;;5109437;28;20558;-74
2021/05/09 05:53:23;;;;;;;7.20;3.80;;;12.70;84.00;;;;;;5109926;28;20956;-73
2021/05/09 05:55:50;;;;;;;8.80;4.30;;;12.90;83.80;;;;;;5110038;28;20460;-76
2021/05/09 05:58:16;;;;;;;6.37;4.00;;;12.90;83.40;;;;;;5109975;28;20446;-76
2021/05/09 06:00:42;;;;;;;10.50;4.73;;;13.00;83.10;;;;;;5109431;28;20559;-73
2021/05/09 06:03:08;;;;;;;5.73;4.13;;;13.00;82.70;;;;;;5109537;28;21016;-73
2021/05/09 06:05:34;;;;;;;6.93;4.33;;;13.10;82.70;;;;;;5109561;28;20417;-75
2021/05/09 06:08:00;;;;;;;9.30;4.60;;;13.20;82.40;;;;;;5108525;28;20198;-73
2021/05/09 06:10:26;;;;;;;6.80;4.53;;;13.20;82.10;;;;;;5107550;28;20473;-74
2021/05/09 06:12:55;;;;;;;6.80;4.77;;;13.30;81.70;;;;;;5109581;28;20206;-74
2021/05/09 06:15:21;;;;;;;8.57;5.17;;;13.30;81.20;;;;;;5109545;28;20183;-74
2021/05/09 06:17:47;;;;;;;10.50;5.80;;;13.40;80.20;;;;;;5105553;28;20921;-74
2021/05/09 06:20:13;;;;;;;9.57;5.80;;;13.50;80.00;;;;;;5087129;28;20918;-75
2021/05/09 06:22:39;;;;;;;7.70;5.50;;;13.60;79.50;;;;;;5092864;28;21029;-74
2021/05/09 06:25:05;;;;;;;11.40;5.30;;;13.60;79.60;;;;;;5112752;28;20405;-74
2021/05/09 06:27:31;;;;;;;6.00;4.40;;;13.70;79.20;;;;;;5109210;28;20178;-75
2021/05/09 06:29:57;;;;;;;8.10;4.77;;;13.80;78.60;;;;;;5109365;28;20470;-72
2021/05/09 06:32:23;;;;;;;11.10;6.17;;;13.90;78.40;;;;;;5109825;28;20227;-75
2021/05/09 06:34:48;;;;;;;9.97;5.50;;;14.00;77.70;;;;;;5110323;28;20256;-76
2021/05/09 06:37:14;;;;;;;10.50;5.20;;;14.00;76.20;;;;;;5110058;28;20798;-74
2021/05/09 06:39:40;;;;;;;5.80;4.60;;;14.00;77.00;;;;;;5109257;28;20226;-72
2021/05/09 06:42:07;;;;;;;11.00;5.87;;;14.10;77.00;;;;;;5109816;28;20183;-74
2021/05/09 06:44:35;;;;;;;7.17;4.77;;;14.10;76.20;;;;;;5108338;28;20575;-74
2021/05/09 06:47:02;;;;;;;6.63;4.60;;;14.20;76.10;;;;;;5109875;28;20412;-76
2021/05/09 06:49:28;;;;;;;9.23;5.27;;;14.40;75.80;;;;;;5107429;28;20431;-71
2021/05/09 06:51:56;;;;;;;15.80;5.37;;;14.50;75.20;;;;;;5107999;28;20432;-71
2021/05/09 06:54:22;;;;;;;7.90;5.43;;;14.60;74.90;;;;;;5109831;28;20448;-71
2021/05/09 06:56:49;;;;;;;9.60;4.80;;;14.70;74.50;;;;;;5107785;28;20428;-71
2021/05/09 06:59:16;;;;;;;6.57;4.10;;;14.80;74.00;;;;;;5109601;28;20460;-72
2021/05/09 07:01:42;;;;;;;7.43;4.27;;;14.80;72.30;;;;;;5110501;28;20454;-71
2021/05/09 07:04:08;;;;;;;6.43;4.37;;;14.90;72.60;;;;;;5111127;28;20452;-71
2021/05/09 07:06:35;;;;;;;7.27;3.67;;;15.10;71.70;;;;;;5093057;28;20413;-71
2021/05/09 07:09:01;;;;;;;7.40;3.97;;;15.20;71.00;;;;;;5090443;28;20425;-72
2021/05/09 07:11:27;;;;;;;6.50;4.20;;;15.30;70.50;;;;;;5094787;28;20420;-72
2021/05/09 07:13:53;;;;;;;9.33;4.60;;;15.40;70.20;;;;;;5103618;28;20528;-71
2021/05/09 07:16:20;;;;;;;4.87;4.13;;;15.50;70.20;;;;;;5098264;28;20429;-72
2021/05/09 07:18:46;;;;;;;5.37;3.53;;;15.60;69.80;;;;;;5102376;28;20451;-71
2021/05/09 07:21:15;;;;;;;5.60;3.47;;;15.90;68.60;;;;;;5110560;28;20425;-75
2021/05/09 07:23:48;;;;;;;4.83;3.70;;;16.00;68.50;;;;;;5109946;28;20471;-74
2021/05/09 07:26:15;;;;;;;5.87;3.47;;;16.10;68.30;;;;;;5102300;28;20897;-73
2021/05/09 07:28:41;;;;;;;7.10;4.17;;;16.20;67.20;;;;;;5089708;28;20450;-72
2021/05/09 07:31:07;;;;;;;9.63;3.63;;;16.30;66.70;;;;;;5098024;28;20418;-72
2021/05/09 07:33:33;;;;;;;6.60;3.87;;;16.50;66.90;;;;;;5103698;28;20554;-72
2021/05/09 07:35:59;;;;;;;5.80;3.80;;;16.60;66.40;;;;;;5113022;28;20648;-71
2021/05/09 07:38:24;;;;;;;5.83;3.67;;;16.60;65.70;;;;;;5103731;28;20186;-70
2021/05/09 07:40:50;;;;;;;5.90;3.50;;;16.80;65.40;;;;;;5107343;28;20302;-72
2021/05/09 07:43:16;;;;;;;4.40;3.63;;;16.80;65.40;;;;;;5098777;28;20283;-73
2021/05/09 07:45:44;;;;;;;4.60;3.03;;;17.00;64.50;;;;;;5103626;28;21190;-71
2021/05/09 07:48:10;;;;;;;5.70;3.10;;;17.20;64.10;;;;;;5103995;28;20188;-72
2021/05/09 07:50:36;;;;;;;5.63;3.30;;;17.40;63.70;;;;;;5100912;28;20458;-71
2021/05/09 07:53:03;;;;;;;4.57;3.00;;;17.50;62.80;;;;;;5093600;28;20475;-71
2021/05/09 07:55:29;;;;;;;30.13;14.67;;;17.70;62.00;;;;;;5114458;28;20442;-70
2021/05/09 07:57:55;;;;;;;13.53;7.17;;;17.80;61.50;;;;;;5111485;28;20432;-72
2021/05/09 08:00:22;;;;;;;11.87;6.17;;;17.90;61.30;;;;;;5111014;28;20372;-72
2021/05/09 08:02:51;;;;;;;5.83;4.20;;;18.10;60.30;;;;;;5111483;28;20202;-72
2021/05/09 08:05:18;;;;;;;6.53;4.23;;;18.20;59.60;;;;;;5122330;28;20417;-73
2021/05/09 08:07:52;;;;;;;4.87;2.93;;;18.40;59.10;;;;;;5118021;27;20418;-74
2021/05/09 08:10:18;;;;;;;7.53;4.00;;;18.60;59.10;;;;;;5114269;28;20481;-71
2021/05/09 08:12:44;;;;;;;7.37;4.13;;;18.70;58.50;;;;;;5122357;28;20460;-72
2021/05/09 08:15:10;;;;;;;9.37;3.83;;;18.80;57.40;;;;;;5122052;28;20457;-72
2021/05/09 08:17:36;;;;;;;6.70;3.30;;;19.00;57.20;;;;;;5119848;28;20200;-73
2021/05/09 08:20:04;;;;;;;4.17;2.90;;;19.20;57.00;;;;;;5111995;27;20460;-73
2021/05/09 08:22:30;;;;;;;5.30;2.90;;;19.40;56.90;;;;;;5111255;28;20271;-72
2021/05/09 08:24:55;;;;;;;4.67;2.97;;;19.50;56.00;;;;;;5102640;28;21004;-73
2021/05/09 08:27:21;;;;;;;3.97;2.60;;;19.60;55.00;;;;;;5091620;28;20226;-73
2021/05/09 08:29:47;;;;;;;3.77;2.50;;;19.80;54.80;;;;;;5090396;28;20205;-72
2021/05/09 08:32:13;;;;;;;5.53;2.87;;;19.90;54.60;;;;;;5104678;28;20216;-72
2021/05/09 08:34:38;;;;;;;3.30;2.30;;;20.10;54.20;;;;;;5092125;28;20183;-73
2021/05/09 08:37:04;;;;;;;2.77;2.63;;;20.20;53.30;;;;;;5091709;28;20474;-73
2021/05/09 08:39:30;;;;;;;3.37;2.60;;;20.30;52.60;;;;;;5093597;28;20249;-73
2021/05/09 08:41:56;;;;;;;4.70;3.20;;;20.50;53.20;;;;;;5092787;28;20176;-72
2021/05/09 08:44:21;;;;;;;4.60;2.73;;;20.70;52.00;;;;;;5091856;28;20453;-74
2021/05/09 08:46:47;;;;;;;4.70;2.40;;;20.90;51.40;;;;;;5091397;28;20381;-72
2021/05/09 08:49:16;;;;;;;3.87;2.43;;;21.10;50.70;;;;;;5096878;28;20195;-75
2021/05/09 08:51:43;;;;;;;4.57;2.47;;;21.20;50.10;;;;;;5094959;28;20418;-74
2021/05/09 08:54:08;;;;;;;6.73;2.80;;;21.30;49.00;;;;;;5100029;28;20446;-75
2021/05/09 08:56:37;;;;;;;3.90;2.47;;;21.40;49.50;;;;;;5106948;28;20438;-74
2021/05/09 08:59:03;;;;;;;4.47;3.10;;;21.60;48.70;;;;;;5110910;28;20215;-73
2021/05/09 09:01:30;;;;;;;3.73;2.50;;;21.80;48.90;;;;;;5094985;28;20415;-74
2021/05/09 09:03:56;;;;;;;5.27;3.10;;;21.90;48.70;;;;;;5090711;28;20698;-73
2021/05/09 09:06:42;;;;;;;3.30;2.37;;;22.20;48.20;;;;;;5116587;28;20431;-72
2021/05/09 09:09:21;;;;;;;3.63;1.87;;;22.30;47.40;;;;;;5119246;27;20548;-74
2021/05/09 09:11:56;;;;;;;4.27;2.00;;;22.50;47.30;;;;;;5111774;28;20434;-74
2021/05/09 09:14:27;;;;;;;3.57;2.50;;;22.70;45.30;;;;;;5111100;28;20451;-74
2021/05/09 09:17:13;;;;;;;3.43;2.03;;;22.90;47.10;;;;;;5125655;28;20463;-72
2021/05/09 09:20:13;;;;;;;2.67;2.10;;;23.10;45.30;;;;;;5131432;28;20481;-72
2021/05/09 09:22:54;;;;;;;2.20;2.00;;;23.30;44.50;;;;;;5118959;28;20440;-73
2021/05/09 09:25:28;;;;;;;3.40;1.83;;;23.80;41.00;;;;;;5109381;28;20429;-72
2021/05/09 09:27:55;;;;;;;2.40;1.90;;;24.10;41.40;;;;;;5097072;28;20437;-73
2021/05/09 09:30:23;;;;;;;3.90;2.13;;;24.30;40.20;;;;;;5110846;28;20522;-74
2021/05/09 09:33:09;;;;;;;2.93;1.97;;;24.50;40.60;;;;;;5111364;28;20441;-74
2021/05/09 09:35:35;;;;;;;2.27;2.10;;;24.70;40.70;;;;;;5108701;28;20973;-73
2021/05/09 09:38:19;;;;;;;4.30;1.67;;;24.70;39.80;;;;;;5099398;28;20502;-74
2021/05/09 09:41:15;;;;;;;2.33;1.67;;;24.80;39.20;;;;;;5095541;28;20478;-72
2021/05/09 09:43:43;;;;;;;3.33;1.70;;;24.90;38.20;;;;;;5108948;28;20444;-74
2021/05/09 09:46:36;;;;;;;4.37;1.90;;;25.20;37.80;;;;;;5110404;28;20432;-71
2021/05/09 09:49:04;;;;;;;5.37;2.87;;;25.20;38.00;;;;;;5098321;28;20466;-74
2021/05/09 09:51:50;;;;;;;2.97;1.93;;;25.40;38.00;;;;;;5110510;28;20495;-72
2021/05/09 09:54:34;;;;;;;3.40;2.07;;;25.40;39.80;;;;;;5109222;28;20496;-75
2021/05/09 09:57:03;;;;;;;2.70;1.90;;;25.80;37.10;;;;;;5090215;28;20865;-72
2021/05/09 09:59:29;;;;;;;3.07;2.10;;;26.20;36.80;;;;;;5089708;28;20483;-72
2021/05/09 10:01:56;;;;;;;2.73;2.07;;;26.70;34.50;;;;;;5096465;28;20423;-74
2021/05/09 10:04:22;;;;;;;2.73;2.20;;;27.20;33.50;;;;;;5095489;28;20214;-77
2021/05/09 10:06:48;;;;;;;1.93;1.57;;;27.60;32.80;;;;;;5100472;28;20454;-73
2021/05/09 10:09:14;;;;;;;2.40;1.70;;;27.90;32.10;;;;;;5109789;28;20473;-73
2021/05/09 10:11:40;;;;;;;4.63;1.70;;;28.30;32.40;;;;;;5101209;28;20193;-73
2021/05/09 10:14:06;;;;;;;2.40;1.80;;;28.60;31.10;;;;;;5115219;28;20701;-78
2021/05/09 10:16:37;;;;;;;4.33;2.03;;;28.50;29.00;;;;;;5105645;28;20265;-74
2021/05/09 10:19:05;;;;;;;3.20;1.60;;;28.50;29.40;;;;;;5094747;28;20413;-73
2021/05/09 10:21:32;;;;;;;2.27;1.50;;;28.60;29.40;;;;;;5098001;28;20432;-74
2021/05/09 10:24:17;;;;;;;2.87;2.13;;;28.80;28.70;;;;;;5110166;28;20435;-73
2021/05/09 10:26:53;;;;;;;2.20;1.80;;;28.90;29.10;;;;;;5109960;28;20959;-71
2021/05/09 10:29:38;;;;;;;3.20;1.97;;;28.90;29.10;;;;;;5109580;28;20867;-72
2021/05/09 10:32:18;;;;;;;2.40;1.77;;;29.10;28.80;;;;;;5110057;28;20448;-73
2021/05/09 10:34:53;;;;;;;3.43;1.90;;;29.10;28.00;;;;;;5099439;28;20417;-72
2021/05/09 10:37:45;;;;;;;2.27;1.87;;;29.00;27.50;;;;;;5095421;28;20416;-73
2021/05/09 10:40:36;;;;;;;2.17;1.73;;;28.90;27.50;;;;;;5093435;28;20472;-72
2021/05/09 10:43:05;;;;;;;1.73;1.57;;;28.80;27.40;;;;;;5090358;28;20479;-72
2021/05/09 10:45:33;;;;;;;1.80;1.47;;;28.90;27.70;;;;;;5087845;28;20495;-72
2021/05/09 10:48:33;;;;;;;2.90;1.70;;;29.00;27.50;;;;;;5103616;28;20807;-72
2021/05/09 10:51:01;;;;;;;2.47;1.97;;;29.10;27.00;;;;;;5110145;28;20420;-74
2021/05/09 10:53:30;;;;;;;3.80;1.80;;;29.20;26.70;;;;;;5109848;28;20462;-73
2021/05/09 10:55:57;;;;;;;2.90;2.00;;;29.30;27.00;;;;;;5109242;28;20424;-72
2021/05/09 10:58:54;;;;;;;1.87;1.53;;;29.50;26.90;;;;;;5092868;28;20428;-76
2021/05/09 11:01:24;;;;;;;3.60;1.43;;;29.60;26.60;;;;;;5029193;28;20465;-73
2021/05/09 11:03:53;;;;;;;2.17;1.67;;;29.70;26.00;;;;;;5032411;28;20443;-74
2021/05/09 11:06:26;;;;;;;3.80;1.87;;;29.70;26.40;;;;;;5044950;28;21812;-75
2021/05/09 11:09:04;;;;;;;3.00;1.67;;;29.70;26.20;;;;;;5053151;28;20424;-73
2021/05/09 11:11:29;;;;;;;2.00;1.80;;;29.60;26.50;;;;;;5051175;28;20453;-74
2021/05/09 11:14:01;;;;;;;2.50;1.40;;;29.70;26.30;;;;;;5051890;28;20439;-73
2021/05/09 11:16:31;;;;;;;2.17;1.97;;;29.80;26.00;;;;;;5044020;28;20255;-73
2021/05/09 11:19:10;;;;;;;2.77;1.83;;;30.00;25.80;;;;;;5049327;28;20415;-72
2021/05/09 11:21:37;;;;;;;4.63;2.30;;;30.00;25.60;;;;;;5039455;28;20415;-73
2021/05/09 11:24:05;;;;;;;2.23;1.77;;;30.00;26.00;;;;;;5050015;28;20491;-74
2021/05/09 11:26:37;;;;;;;2.27;1.70;;;30.00;26.00;;;;;;5049604;28;20435;-73
2021/05/09 11:29:08;;;;;;;1.93;1.60;;;30.20;25.70;;;;;;5050171;28;20474;-73
2021/05/09 11:31:41;;;;;;;2.47;1.73;;;30.30;25.50;;;;;;5050875;28;20826;-74
2021/05/09 11:34:07;;;;;;;2.23;1.90;;;30.40;25.60;;;;;;5050187;28;20438;-73
2021/05/09 11:36:35;;;;;;;3.10;1.70;;;30.50;25.70;;;;;;5052602;28;20785;-73
2021/05/09 11:39:13;;;;;;;2.40;1.73;;;30.50;25.10;;;;;;5108592;28;20958;-74
2021/05/09 11:42:00;;;;;;;3.80;2.00;;;30.40;25.00;;;;;;5112958;28;20815;-75
2021/05/09 11:44:30;;;;;;;1.80;1.60;;;30.50;25.00;;;;;;5111754;28;20433;-72
2021/05/09 11:46:57;;;;;;;1.73;1.70;;;30.60;24.50;;;;;;5093404;28;20432;-72
2021/05/09 11:49:30;;;;;;;3.13;1.50;;;30.60;24.60;;;;;;5093181;28;20450;-75
2021/05/09 11:52:02;;;;;;;2.33;1.50;;;30.70;24.60;;;;;;5098485;28;20420;-73
2021/05/09 11:54:30;;;;;;;2.83;1.70;;;30.80;24.50;;;;;;5115578;28;20447;-73
2021/05/09 11:57:07;;;;;;;2.27;1.87;;;30.70;24.30;;;;;;5114185;28;20439;-71
2021/05/09 11:59:40;;;;;;;2.40;1.70;;;30.70;24.60;;;;;;5099279;27;20464;-72
2021/05/09 12:02:12;;;;;;;2.80;1.90;;;30.70;24.30;;;;;;5115066;28;20920;-72
2021/05/09 12:04:41;;;;;;;5.73;1.80;;;30.70;24.60;;;;;;5117027;28;20440;-74
2021/05/09 12:07:12;;;;;;;2.97;1.90;;;30.80;24.90;;;;;;5116168;28;20421;-73
2021/05/09 12:09:39;;;;;;;2.17;1.70;;;30.90;24.60;;;;;;5098890;28;20431;-73
2021/05/09 12:12:06;;;;;;;2.90;1.97;;;30.90;24.50;;;;;;5112104;28;20488;-72
2021/05/09 12:14:32;;;;;;;2.10;1.50;;;30.80;24.30;;;;;;5112307;28;20973;-72
2021/05/09 12:16:58;;;;;;;2.20;1.90;;;30.80;24.50;;;;;;5112872;28;20456;-76
2021/05/09 12:19:32;;;;;;;2.83;1.83;;;30.70;24.60;;;;;;5111647;28;20532;-73
2021/05/09 12:22:03;;;;;;;3.10;1.50;;;30.60;24.60;;;;;;5098076;28;20346;-73
2021/05/09 12:24:44;;;;;;;2.50;1.53;;;30.70;24.90;;;;;;5098194;28;20439;-73
2021/05/09 12:27:10;;;;;;;3.30;1.57;;;31.00;24.30;;;;;;5112128;28;20415;-72
2021/05/09 12:29:42;;;;;;;3.30;1.73;;;31.10;24.30;;;;;;5111068;28;20449;-73
2021/05/09 12:32:25;;;;;;;5.17;1.53;;;31.00;24.10;;;;;;5111976;28;20179;-73
2021/05/09 12:35:15;;;;;;;1.93;1.50;;;31.10;24.00;;;;;;5111752;28;20432;-73
2021/05/09 12:37:41;;;;;;;3.30;1.60;;;30.90;24.00;;;;;;5099201;28;20420;-72
2021/05/09 12:40:16;;;;;;;3.53;1.50;;;30.80;23.90;;;;;;5111477;28;20800;-73
2021/05/09 12:42:59;;;;;;;2.00;1.80;;;30.90;24.30;;;;;;5101768;28;20194;-74
2021/05/09 12:45:30;;;;;;;3.00;1.80;;;31.10;23.70;;;;;;5111238;28;20431;-74
2021/05/09 12:48:04;;;;;;;2.07;1.60;;;31.20;23.80;;;;;;5112176;28;20420;-74
2021/05/09 12:50:49;;;;;;;9.03;1.93;;;31.30;23.80;;;;;;5099059;28;20425;-72
2021/05/09 12:53:36;;;;;;;2.27;1.60;;;31.30;24.00;;;;;;5112287;28;20489;-72